Time;durP1;ratioP1;P1;durP2;ratioP2;P2;SDS_P1;SDS_P2;PMS_P1;PMS_P2;Temp;Humidity;BMP_temperature;BMP_pressure;BME280_temperature;BME280_humidity;BME280_pressure;Samples;Min_cycle;Max_cycle;Signal;HPM_P1;HPM_P2
2023/03/12 00:01:34;;;;;;;10.00;2.55;;;3.40;99.90;;;;;;5003687;28;20399;-74
2023/03/12 00:04:03;;;;;;;7.65;2.25;;;3.40;99.90;;;;;;5006798;28;20041;-72
2023/03/12 00:06:29;;;;;;;7.82;3.75;;;3.40;99.90;;;;;;5003012;28;20110;-73
2023/03/12 00:08:54;;;;;;;5.63;2.35;;;3.40;99.90;;;;;;5002664;28;20129;-73
2023/03/12 00:11:20;;;;;;;5.80;2.45;;;3.40;99.90;;;;;;5006717;28;20034;-74
2023/03/12 00:13:54;;;;;;;7.68;3.55;;;3.40;99.90;;;;;;5006214;28;20030;-73
2023/03/12 00:16:20;;;;;;;6.15;2.20;;;3.40;99.90;;;;;;5005314;28;20048;-72
2023/03/12 00:18:50;;;;;;;11.80;2.80;;;3.40;99.90;;;;;;5004184;28;20113;-73
2023/03/12 00:21:16;;;;;;;9.63;2.63;;;3.40;99.90;;;;;;5002437;28;20061;-73
2023/03/12 00:23:42;;;;;;;4.50;2.05;;;3.40;99.90;;;;;;5007456;28;20479;-73
2023/03/12 00:26:13;;;;;;;7.38;2.60;;;3.40;99.90;;;;;;5007795;28;20037;-74
2023/03/12 00:28:39;;;;;;;5.68;1.95;;;3.40;99.90;;;;;;5005619;28;20030;-73
2023/03/12 00:31:25;;;;;;;5.57;2.00;;;3.40;99.90;;;;;;5002119;28;20030;-73
2023/03/12 00:33:51;;;;;;;8.27;2.58;;;3.40;99.90;;;;;;4998703;28;20066;-72
2023/03/12 00:36:18;;;;;;;9.35;2.40;;;3.40;99.90;;;;;;5005986;28;20077;-74
2023/03/12 00:38:44;;;;;;;5.57;2.47;;;3.40;99.90;;;;;;5005776;28;20056;-73
2023/03/12 00:41:09;;;;;;;6.57;2.35;;;3.40;99.90;;;;;;5006077;28;20557;-73
2023/03/12 00:43:35;;;;;;;7.10;2.50;;;3.40;99.90;;;;;;5004690;28;20977;-72
2023/03/12 00:46:01;;;;;;;7.10;2.20;;;3.40;99.90;;;;;;5004677;28;20067;-73
2023/03/12 00:48:26;;;;;;;8.00;2.55;;;3.40;99.90;;;;;;5006255;28;20038;-73
2023/03/12 00:50:52;;;;;;;5.28;2.38;;;3.30;99.90;;;;;;5006468;28;20586;-73
2023/03/12 00:53:18;;;;;;;4.20;2.30;;;3.30;99.90;;;;;;5005343;28;20030;-73
2023/03/12 00:55:43;;;;;;;7.72;2.50;;;3.30;99.90;;;;;;5002851;28;20049;-74
2023/03/12 00:58:09;;;;;;;7.30;2.05;;;3.30;99.90;;;;;;5005217;28;20054;-72
2023/03/12 01:00:34;;;;;;;5.65;2.10;;;3.30;99.90;;;;;;5005028;28;20104;-72
2023/03/12 01:03:00;;;;;;;4.80;2.25;;;3.30;99.90;;;;;;5004252;28;20406;-74
2023/03/12 01:05:26;;;;;;;5.78;2.10;;;3.40;99.90;;;;;;5005077;28;20040;-73
2023/03/12 01:07:51;;;;;;;7.38;2.50;;;3.40;99.90;;;;;;5003165;28;20037;-73
2023/03/12 01:10:19;;;;;;;4.60;1.88;;;3.40;99.90;;;;;;5002258;28;20042;-73
2023/03/12 01:12:44;;;;;;;6.57;1.83;;;3.40;99.90;;;;;;5002755;28;20038;-74
2023/03/12 01:15:13;;;;;;;4.65;1.98;;;3.40;99.90;;;;;;5003682;28;20044;-73
2023/03/12 01:17:39;;;;;;;10.07;2.22;;;3.40;99.90;;;;;;5002045;28;20033;-73
2023/03/12 01:20:05;;;;;;;8.52;2.13;;;3.40;99.90;;;;;;5005472;28;20026;-72
2023/03/12 01:22:31;;;;;;;5.60;1.75;;;3.40;99.90;;;;;;5001980;28;20053;-72
2023/03/12 01:24:56;;;;;;;6.47;1.75;;;3.30;99.90;;;;;;5004454;28;20123;-73
2023/03/12 01:27:22;;;;;;;6.25;2.05;;;3.40;99.90;;;;;;5006501;28;20038;-72
2023/03/12 01:29:48;;;;;;;5.70;2.10;;;3.40;99.90;;;;;;5003983;28;20102;-72
2023/03/12 01:32:13;;;;;;;5.55;1.63;;;3.40;99.90;;;;;;5004399;28;20034;-73
2023/03/12 01:34:39;;;;;;;7.82;2.17;;;3.40;99.90;;;;;;5006060;28;20079;-72
2023/03/12 01:37:06;;;;;;;4.78;2.05;;;3.40;99.90;;;;;;5003902;28;20037;-73
2023/03/12 01:39:32;;;;;;;6.05;2.10;;;3.40;99.90;;;;;;5003139;28;20876;-73
2023/03/12 01:41:57;;;;;;;6.28;1.90;;;3.30;99.90;;;;;;5005218;28;20112;-74
2023/03/12 01:44:23;;;;;;;5.13;1.80;;;3.40;99.90;;;;;;5006293;28;20096;-73
2023/03/12 01:46:48;;;;;;;4.70;2.10;;;3.30;99.90;;;;;;5004360;28;20033;-72
2023/03/12 01:49:27;;;;;;;4.85;1.90;;;3.40;99.90;;;;;;5001935;28;20037;-73
2023/03/12 01:52:06;;;;;;;10.70;3.85;;;3.40;99.90;;;;;;5004707;28;20165;-74
2023/03/12 01:54:42;;;;;;;9.25;2.38;;;3.40;99.90;;;;;;5004615;28;20163;-74
2023/03/12 01:57:13;;;;;;;7.07;2.50;;;3.40;99.90;;;;;;5005670;28;20123;-73
2023/03/12 02:00:00;;;;;;;6.72;2.67;;;3.40;99.90;;;;;;5000322;28;20099;-73
2023/03/12 02:02:28;;;;;;;5.32;2.35;;;3.40;99.90;;;;;;5003839;28;20040;-73
2023/03/12 02:05:32;;;;;;;4.85;1.80;;;3.40;99.90;;;;;;5004500;28;20030;-73
2023/03/12 02:07:58;;;;;;;5.95;2.38;;;3.40;99.90;;;;;;4984150;28;20574;-74
2023/03/12 02:10:24;;;;;;;5.10;1.98;;;3.40;99.90;;;;;;5005323;28;20101;-72
2023/03/12 02:12:51;;;;;;;9.88;2.40;;;3.40;99.90;;;;;;5006880;28;20116;-74
2023/03/12 02:15:17;;;;;;;5.80;2.33;;;3.40;99.90;;;;;;5007978;28;20141;-75
2023/03/12 02:17:43;;;;;;;4.88;2.05;;;3.40;99.90;;;;;;5007715;28;20570;-73
2023/03/12 02:20:36;;;;;;;5.45;1.90;;;3.40;99.90;;;;;;5007432;28;20033;-73
2023/03/12 02:23:31;;;;;;;5.45;1.92;;;3.40;99.90;;;;;;5006096;28;20030;-73
2023/03/12 02:25:57;;;;;;;5.95;2.22;;;3.40;99.90;;;;;;5006722;28;20060;-73
2023/03/12 02:28:27;;;;;;;3.20;1.90;;;3.40;99.90;;;;;;5002389;28;20042;-73
2023/03/12 02:30:57;;;;;;;4.75;2.15;;;3.50;99.90;;;;;;5007667;28;20044;-74
2023/03/12 02:33:23;;;;;;;3.63;1.80;;;3.50;99.90;;;;;;5004808;28;20034;-72
2023/03/12 02:35:50;;;;;;;7.05;1.70;;;3.60;99.90;;;;;;5006557;28;20072;-73
2023/03/12 02:38:31;;;;;;;5.80;2.30;;;3.50;99.90;;;;;;5006053;28;20042;-73
2023/03/12 02:41:02;;;;;;;9.43;2.88;;;3.50;99.90;;;;;;5004942;28;20100;-74
2023/03/12 02:43:28;;;;;;;7.68;2.50;;;3.50;99.90;;;;;;5002111;28;20030;-74
2023/03/12 02:45:54;;;;;;;5.05;1.70;;;3.50;99.90;;;;;;4999500;28;20037;-74
2023/03/12 02:48:20;;;;;;;4.78;1.63;;;3.50;99.90;;;;;;5000821;28;20533;-73
2023/03/12 02:50:46;;;;;;;10.95;3.35;;;3.40;99.90;;;;;;5003137;28;20080;-73
2023/03/12 02:53:11;;;;;;;2.65;1.67;;;3.50;99.90;;;;;;5005893;28;20033;-72
2023/03/12 02:55:37;;;;;;;5.30;1.70;;;3.50;99.90;;;;;;5008822;28;20033;-73
2023/03/12 02:58:02;;;;;;;3.25;1.55;;;3.50;99.90;;;;;;5008191;28;20437;-74
2023/03/12 03:00:31;;;;;;;4.90;1.80;;;3.50;99.90;;;;;;5007207;28;20034;-72
2023/03/12 03:03:00;;;;;;;2.63;1.52;;;3.50;99.90;;;;;;5007926;28;20057;-74
2023/03/12 03:05:25;;;;;;;5.28;1.40;;;3.60;99.90;;;;;;5006576;28;20041;-72
2023/03/12 03:07:51;;;;;;;4.30;2.40;;;3.60;99.90;;;;;;5005933;28;20099;-74
2023/03/12 03:10:17;;;;;;;4.90;1.70;;;3.50;99.90;;;;;;5006565;28;20494;-73
2023/03/12 03:12:43;;;;;;;8.70;1.95;;;3.50;99.90;;;;;;5008783;28;20045;-73
2023/03/12 03:15:10;;;;;;;4.25;1.67;;;3.50;99.90;;;;;;5004525;28;20038;-73
2023/03/12 03:17:36;;;;;;;5.45;1.73;;;3.60;99.90;;;;;;5008414;28;20030;-73
2023/03/12 03:20:05;;;;;;;7.10;2.47;;;3.50;99.90;;;;;;5003027;28;20031;-73
2023/03/12 03:22:31;;;;;;;8.82;1.63;;;3.60;99.90;;;;;;5003065;28;20041;-72
2023/03/12 03:24:56;;;;;;;5.32;1.77;;;3.60;99.90;;;;;;5008738;28;20022;-74
2023/03/12 03:27:22;;;;;;;5.93;1.95;;;3.50;99.90;;;;;;5006296;28;20659;-73
2023/03/12 03:29:48;;;;;;;13.85;2.08;;;3.50;99.90;;;;;;5005816;28;20049;-74
2023/03/12 03:32:13;;;;;;;10.20;1.90;;;3.50;99.90;;;;;;5032496;28;20121;-73
2023/03/12 03:34:39;;;;;;;2.75;1.65;;;3.60;99.90;;;;;;5005977;28;20029;-72
2023/03/12 03:37:05;;;;;;;7.07;1.98;;;3.60;99.90;;;;;;5007966;28;20157;-72
2023/03/12 03:39:30;;;;;;;5.80;1.30;;;3.60;99.90;;;;;;5003624;28;20033;-72
2023/03/12 03:41:56;;;;;;;4.03;1.23;;;3.60;99.90;;;;;;5008560;28;20042;-74
2023/03/12 03:44:21;;;;;;;6.00;1.58;;;3.50;99.90;;;;;;5007127;28;20030;-74
2023/03/12 03:46:48;;;;;;;12.68;1.33;;;3.50;99.90;;;;;;5007388;28;20109;-73
2023/03/12 03:49:14;;;;;;;18.73;2.20;;;3.50;99.90;;;;;;5006766;28;20030;-75
2023/03/12 03:51:41;;;;;;;7.50;1.33;;;3.50;99.90;;;;;;5005168;28;20509;-73
2023/03/12 03:54:08;;;;;;;6.07;1.52;;;3.40;99.90;;;;;;5003137;28;20034;-73
2023/03/12 03:56:34;;;;;;;5.30;1.55;;;3.40;99.90;;;;;;5015799;28;20070;-73
2023/03/12 03:59:01;;;;;;;3.17;1.40;;;3.30;99.90;;;;;;5006518;28;20061;-73
2023/03/12 04:01:27;;;;;;;3.85;1.40;;;3.30;99.90;;;;;;5002198;28;20053;-74
2023/03/12 04:03:53;;;;;;;3.42;1.27;;;3.30;99.90;;;;;;5004248;28;20033;-74
2023/03/12 04:06:19;;;;;;;8.85;1.80;;;3.40;99.90;;;;;;5004813;28;20531;-73
2023/03/12 04:08:47;;;;;;;5.80;1.80;;;3.30;99.90;;;;;;5006588;28;20053;-73
2023/03/12 04:11:18;;;;;;;7.10;1.48;;;3.30;99.90;;;;;;5001407;28;20038;-72
2023/03/12 04:13:45;;;;;;;6.90;0.98;;;3.40;99.90;;;;;;5007853;28;20026;-73
2023/03/12 04:16:12;;;;;;;4.70;1.10;;;3.40;99.90;;;;;;5003640;28;20088;-73
2023/03/12 04:18:38;;;;;;;3.80;1.20;;;3.40;99.90;;;;;;5002512;28;20176;-73
2023/03/12 04:21:05;;;;;;;4.00;1.23;;;3.50;99.90;;;;;;5005664;28;20037;-72
2023/03/12 04:23:31;;;;;;;4.50;1.30;;;3.40;99.90;;;;;;5002215;28;20568;-73
2023/03/12 04:25:57;;;;;;;3.10;1.38;;;3.50;99.90;;;;;;5006961;28;20034;-72
2023/03/12 04:28:23;;;;;;;4.45;1.35;;;3.50;99.90;;;;;;5006900;28;20100;-74
2023/03/12 04:30:58;;;;;;;8.30;2.08;;;3.60;99.90;;;;;;5006011;28;20546;-73
2023/03/12 04:33:27;;;;;;;4.50;1.23;;;3.60;99.90;;;;;;5002805;28;20037;-73
2023/03/12 04:35:53;;;;;;;3.22;1.30;;;3.60;99.90;;;;;;5006883;28;20029;-73
2023/03/12 04:38:20;;;;;;;8.75;1.30;;;3.60;99.90;;;;;;5006491;28;20100;-74
2023/03/12 04:40:46;;;;;;;3.97;1.73;;;3.60;99.90;;;;;;5007227;28;20064;-72
2023/03/12 04:43:12;;;;;;;9.85;3.05;;;3.60;99.90;;;;;;5003008;28;20068;-73
2023/03/12 04:45:38;;;;;;;6.65;2.63;;;3.60;99.90;;;;;;4999041;28;20057;-72
2023/03/12 04:48:05;;;;;;;3.38;0.90;;;3.60;99.90;;;;;;5007092;28;20498;-73
2023/03/12 04:50:30;;;;;;;8.82;2.15;;;3.50;99.90;;;;;;5006200;28;20053;-73
2023/03/12 04:52:56;;;;;;;7.55;1.70;;;3.60;99.90;;;;;;5003113;28;20038;-72
2023/03/12 04:55:21;;;;;;;9.70;2.30;;;3.50;99.90;;;;;;5002025;28;20042;-72
2023/03/12 04:57:47;;;;;;;8.45;1.65;;;3.50;99.90;;;;;;5007172;28;20030;-72
2023/03/12 05:00:13;;;;;;;3.75;1.50;;;3.50;99.90;;;;;;4994040;28;20072;-73
2023/03/12 05:02:40;;;;;;;3.65;1.63;;;3.50;99.90;;;;;;5008633;28;20042;-73
2023/03/12 05:05:06;;;;;;;4.63;2.00;;;3.50;99.90;;;;;;4998519;28;20038;-72
2023/03/12 05:07:33;;;;;;;6.18;2.83;;;3.50;99.90;;;;;;5002661;28;21627;-73
2023/03/12 05:09:58;;;;;;;4.03;1.48;;;3.50;99.90;;;;;;5002867;28;20415;-74
2023/03/12 05:12:24;;;;;;;4.75;1.52;;;3.50;99.90;;;;;;4997921;28;20034;-72
2023/03/12 05:14:52;;;;;;;5.10;1.50;;;3.50;99.90;;;;;;4998879;28;20030;-72
2023/03/12 05:17:18;;;;;;;7.43;2.25;;;3.50;99.90;;;;;;4994955;28;20061;-73
2023/03/12 05:19:43;;;;;;;5.35;1.67;;;3.50;99.90;;;;;;5009860;28;20491;-73
2023/03/12 05:22:09;;;;;;;3.20;1.70;;;3.50;99.90;;;;;;4998147;28;20041;-73
2023/03/12 05:24:35;;;;;;;8.45;2.22;;;3.50;99.90;;;;;;5001916;28;20042;-73
2023/03/12 05:27:01;;;;;;;9.57;1.83;;;3.50;99.90;;;;;;4998905;28;20022;-73
2023/03/12 05:29:26;;;;;;;5.57;1.58;;;3.50;99.90;;;;;;4997592;28;20172;-72
2023/03/12 05:31:52;;;;;;;7.22;1.83;;;3.50;99.90;;;;;;5009635;28;20164;-72
2023/03/12 05:34:17;;;;;;;8.27;2.67;;;3.50;99.90;;;;;;4997532;28;20100;-74
2023/03/12 05:36:43;;;;;;;5.47;2.10;;;3.50;99.90;;;;;;4995133;28;20038;-72
2023/03/12 05:39:09;;;;;;;4.60;2.05;;;3.60;99.90;;;;;;4994131;28;20030;-73
2023/03/12 05:41:34;;;;;;;3.53;1.85;;;3.60;99.90;;;;;;4999185;28;20052;-73
2023/03/12 05:44:00;;;;;;;4.72;1.63;;;3.50;99.90;;;;;;5009493;28;20046;-73
2023/03/12 05:46:26;;;;;;;5.28;1.70;;;3.60;99.90;;;;;;5003447;28;20168;-73
2023/03/12 05:48:52;;;;;;;5.32;1.98;;;3.60;99.90;;;;;;5004073;28;20221;-73
2023/03/12 05:51:21;;;;;;;4.97;2.40;;;3.50;99.90;;;;;;5006608;28;20517;-74
2023/03/12 05:53:46;;;;;;;6.55;2.08;;;3.60;99.90;;;;;;5005384;28;20033;-72
2023/03/12 05:56:14;;;;;;;7.78;2.03;;;3.60;99.90;;;;;;4999999;28;20093;-73
2023/03/12 05:58:40;;;;;;;6.93;2.47;;;3.60;99.90;;;;;;5004713;28;20084;-72
2023/03/12 06:01:18;;;;;;;14.65;1.90;;;3.60;99.90;;;;;;5006566;28;20117;-73
2023/03/12 06:03:44;;;;;;;4.65;1.65;;;3.60;99.90;;;;;;5005303;28;20041;-73
2023/03/12 06:06:10;;;;;;;11.27;2.17;;;3.50;99.90;;;;;;4999516;28;20042;-72
2023/03/12 06:08:36;;;;;;;7.90;2.40;;;3.50;99.90;;;;;;5003995;28;20037;-72
2023/03/12 06:11:02;;;;;;;6.70;2.25;;;3.50;99.90;;;;;;5002317;28;20121;-73
2023/03/12 06:13:28;;;;;;;6.45;3.00;;;3.50;99.90;;;;;;5001724;28;20038;-73
2023/03/12 06:15:53;;;;;;;4.70;1.98;;;3.50;99.90;;;;;;5002904;28;20045;-73
2023/03/12 06:18:19;;;;;;;7.75;2.85;;;3.40;99.90;;;;;;5002047;28;20038;-73
2023/03/12 06:20:45;;;;;;;4.07;2.15;;;3.40;99.90;;;;;;5003932;28;20030;-72
2023/03/12 06:23:10;;;;;;;11.95;3.30;;;3.40;99.90;;;;;;4998242;28;20046;-73
2023/03/12 06:25:36;;;;;;;5.70;2.20;;;3.40;99.90;;;;;;5000123;28;20117;-73
2023/03/12 06:28:02;;;;;;;3.75;1.73;;;3.40;99.90;;;;;;5004503;28;20031;-74
2023/03/12 06:30:28;;;;;;;5.60;2.40;;;3.40;99.90;;;;;;5005571;28;20402;-72
2023/03/12 06:32:53;;;;;;;7.88;2.63;;;3.40;99.90;;;;;;5013334;28;20121;-74
2023/03/12 06:35:19;;;;;;;10.15;2.90;;;3.50;99.90;;;;;;4999785;28;20049;-72
2023/03/12 06:37:45;;;;;;;6.47;2.53;;;3.40;99.90;;;;;;5000257;28;20038;-73
2023/03/12 06:40:11;;;;;;;6.72;2.97;;;3.40;99.90;;;;;;4998896;28;20395;-72
2023/03/12 06:42:37;;;;;;;9.88;2.92;;;3.50;99.90;;;;;;5002207;28;20026;-73
2023/03/12 06:45:04;;;;;;;7.35;2.40;;;3.40;99.90;;;;;;4996743;28;20126;-74
2023/03/12 06:47:35;;;;;;;14.98;4.13;;;3.50;99.90;;;;;;4999122;28;20056;-73
2023/03/12 06:50:01;;;;;;;8.45;3.38;;;3.40;99.90;;;;;;4997995;28;20031;-72
2023/03/12 06:52:26;;;;;;;6.53;2.75;;;3.40;99.90;;;;;;5000761;28;20045;-73
2023/03/12 06:54:52;;;;;;;5.18;3.05;;;3.40;99.90;;;;;;5000471;28;20069;-72
2023/03/12 06:57:17;;;;;;;7.68;2.97;;;3.40;99.90;;;;;;4997844;28;20114;-72
2023/03/12 06:59:43;;;;;;;7.93;2.70;;;3.50;99.90;;;;;;4999973;28;20045;-72
2023/03/12 07:02:10;;;;;;;7.03;3.28;;;3.40;99.90;;;;;;4997839;28;20038;-72
2023/03/12 07:04:36;;;;;;;13.93;3.53;;;3.40;99.90;;;;;;5003896;28;20117;-72
2023/03/12 07:07:01;;;;;;;6.03;3.88;;;3.50;99.90;;;;;;5002528;28;20390;-73
2023/03/12 07:09:27;;;;;;;8.43;3.25;;;3.50;99.90;;;;;;5001189;28;20170;-73
2023/03/12 07:11:52;;;;;;;7.78;4.13;;;3.50;99.90;;;;;;5002933;28;20198;-73
2023/03/12 07:14:20;;;;;;;10.25;3.72;;;3.50;99.90;;;;;;4997198;28;20388;-74
2023/03/12 07:16:46;;;;;;;20.98;4.30;;;3.50;99.90;;;;;;5003416;28;20042;-72
2023/03/12 07:19:11;;;;;;;11.25;4.45;;;3.50;99.90;;;;;;5004619;28;20383;-73
2023/03/12 07:21:37;;;;;;;8.93;4.70;;;3.60;99.90;;;;;;5003598;28;20037;-73
2023/03/12 07:24:05;;;;;;;10.82;4.88;;;3.60;99.90;;;;;;5000994;28;20046;-71
2023/03/12 07:26:32;;;;;;;10.80;3.65;;;3.60;99.90;;;;;;5001927;28;20034;-72
2023/03/12 07:28:58;;;;;;;8.35;3.85;;;3.60;99.90;;;;;;4997590;28;20066;-73
2023/03/12 07:31:23;;;;;;;7.07;3.42;;;3.70;99.90;;;;;;5002661;28;20084;-73
2023/03/12 07:33:49;;;;;;;5.55;3.40;;;3.70;99.90;;;;;;5013884;28;20486;-73
2023/03/12 07:36:14;;;;;;;10.25;3.17;;;3.70;99.90;;;;;;5005953;28;20096;-73
2023/03/12 07:38:40;;;;;;;10.60;4.20;;;3.70;99.90;;;;;;5006021;28;20065;-72
2023/03/12 07:41:05;;;;;;;9.25;3.42;;;3.80;99.90;;;;;;5008030;28;20038;-73
2023/03/12 07:43:31;;;;;;;14.63;3.75;;;3.80;99.90;;;;;;5007618;28;20034;-74
2023/03/12 07:45:57;;;;;;;11.25;4.05;;;3.70;99.90;;;;;;5008373;28;20034;-73
2023/03/12 07:48:22;;;;;;;12.38;4.03;;;3.80;99.90;;;;;;5005753;28;20038;-72
2023/03/12 07:50:48;;;;;;;10.20;3.63;;;3.90;99.90;;;;;;5004280;28;20042;-73
2023/03/12 07:53:14;;;;;;;11.00;3.65;;;3.90;99.90;;;;;;5003797;28;20667;-72
2023/03/12 07:55:42;;;;;;;9.98;4.80;;;3.90;99.90;;;;;;5007098;28;20042;-73
2023/03/12 07:58:07;;;;;;;14.70;6.00;;;3.90;99.90;;;;;;5004254;28;20041;-73
2023/03/12 08:00:33;;;;;;;15.88;4.45;;;4.00;99.90;;;;;;5007448;28;20430;-73
2023/03/12 08:02:58;;;;;;;7.28;3.95;;;4.00;99.90;;;;;;5006610;28;20045;-73
2023/03/12 08:05:25;;;;;;;9.32;4.80;;;4.10;99.90;;;;;;5002295;28;20080;-73
2023/03/12 08:07:51;;;;;;;11.88;4.90;;;4.10;99.90;;;;;;5001243;28;20517;-74
2023/03/12 08:10:18;;;;;;;11.05;4.40;;;4.10;99.90;;;;;;5001970;28;20049;-73
2023/03/12 08:12:43;;;;;;;8.23;4.10;;;4.10;99.90;;;;;;5003951;28;20038;-73
2023/03/12 08:15:11;;;;;;;9.77;4.57;;;4.20;99.90;;;;;;5006502;28;20068;-73
2023/03/12 08:17:38;;;;;;;14.32;4.55;;;4.20;99.90;;;;;;5006054;28;20054;-72
2023/03/12 08:20:05;;;;;;;8.63;4.20;;;4.20;99.90;;;;;;4998968;28;20022;-74
2023/03/12 08:22:31;;;;;;;9.27;3.85;;;4.30;99.90;;;;;;5000346;28;20034;-74
2023/03/12 08:24:56;;;;;;;13.73;4.70;;;4.30;99.90;;;;;;5003082;28;20034;-74
2023/03/12 08:27:22;;;;;;;12.60;4.70;;;4.40;99.90;;;;;;5005896;28;20088;-73
2023/03/12 08:29:48;;;;;;;16.95;5.53;;;4.40;99.90;;;;;;5006879;28;20049;-73
2023/03/12 08:32:13;;;;;;;7.88;4.55;;;4.40;99.90;;;;;;5003302;28;20517;-73
2023/03/12 08:34:39;;;;;;;9.95;4.22;;;4.40;99.90;;;;;;5001690;28;20068;-73
2023/03/12 08:37:05;;;;;;;8.73;4.43;;;4.50;99.90;;;;;;5000390;28;20052;-75
2023/03/12 08:39:31;;;;;;;10.05;5.15;;;4.50;99.90;;;;;;5004131;28;20506;-74
2023/03/12 08:41:57;;;;;;;10.73;4.88;;;4.50;99.90;;;;;;5005828;28;20042;-72
2023/03/12 08:44:23;;;;;;;13.32;5.15;;;4.60;99.90;;;;;;5000547;28;20490;-73
2023/03/12 08:46:50;;;;;;;14.10;6.25;;;4.80;99.90;;;;;;5005921;28;20406;-71
2023/03/12 08:49:15;;;;;;;13.40;5.15;;;4.80;99.90;;;;;;5005320;28;20026;-71
2023/03/12 08:51:41;;;;;;;14.95;5.30;;;4.90;99.90;;;;;;5007137;28;20049;-73
2023/03/12 08:54:08;;;;;;;10.30;4.75;;;4.90;99.90;;;;;;5005508;28;20030;-73
2023/03/12 08:56:35;;;;;;;14.95;6.43;;;5.00;99.90;;;;;;4999059;28;20157;-73
2023/03/12 08:59:02;;;;;;;13.45;6.10;;;5.10;99.90;;;;;;5006082;28;20042;-71
2023/03/12 09:01:28;;;;;;;16.42;6.15;;;5.20;99.90;;;;;;5006689;28;20030;-72
2023/03/12 09:03:54;;;;;;;18.13;6.28;;;5.20;99.90;;;;;;5004087;28;20507;-72
2023/03/12 09:06:20;;;;;;;18.08;6.78;;;5.30;99.90;;;;;;5004909;28;20037;-74
2023/03/12 09:08:46;;;;;;;20.13;7.57;;;5.30;99.90;;;;;;5004794;28;20022;-71
2023/03/12 09:11:13;;;;;;;16.80;7.95;;;5.40;99.90;;;;;;5004896;28;20026;-77
2023/03/12 09:13:39;;;;;;;15.77;7.38;;;5.50;99.90;;;;;;5004062;28;20037;-71
2023/03/12 09:16:06;;;;;;;16.30;7.68;;;5.50;99.90;;;;;;5005298;28;20057;-73
2023/03/12 09:18:32;;;;;;;16.08;7.50;;;5.60;99.90;;;;;;5001917;28;20142;-70
2023/03/12 09:20:58;;;;;;;18.33;8.85;;;5.70;99.90;;;;;;5005756;28;20030;-71
2023/03/12 09:23:25;;;;;;;22.35;8.10;;;5.80;99.90;;;;;;5019369;28;20044;-71
2023/03/12 09:25:51;;;;;;;17.67;8.10;;;5.90;99.90;;;;;;5005759;28;20045;-71
2023/03/12 09:28:17;;;;;;;21.33;8.05;;;6.00;99.90;;;;;;5003345;28;20133;-75
2023/03/12 09:30:42;;;;;;;25.65;8.27;;;6.10;99.90;;;;;;5004442;28;20570;-70
2023/03/12 09:33:08;;;;;;;21.23;8.82;;;6.10;99.90;;;;;;5006020;28;20038;-71
2023/03/12 09:35:35;;;;;;;17.63;8.90;;;6.20;99.90;;;;;;5003444;28;20026;-71
2023/03/12 09:38:01;;;;;;;32.33;9.43;;;6.40;99.90;;;;;;5004588;28;20433;-71
2023/03/12 09:40:30;;;;;;;21.25;9.05;;;6.40;99.90;;;;;;5003589;28;20026;-71
2023/03/12 09:43:01;;;;;;;20.25;8.95;;;6.50;99.90;;;;;;5019325;28;20030;-70
2023/03/12 09:45:34;;;;;;;22.25;9.98;;;6.60;99.90;;;;;;5005130;28;20034;-71
2023/03/12 09:48:02;;;;;;;22.00;9.95;;;6.70;99.90;;;;;;5001917;28;20601;-73
2023/03/12 09:50:32;;;;;;;24.27;9.23;;;6.90;99.90;;;;;;5010076;28;20065;-75
2023/03/12 09:53:10;;;;;;;18.08;9.52;;;7.00;99.90;;;;;;5004013;28;20056;-71
2023/03/12 09:55:42;;;;;;;26.20;9.88;;;7.00;99.90;;;;;;5002496;28;20042;-71
2023/03/12 09:58:31;;;;;;;20.55;8.75;;;7.10;99.90;;;;;;5002786;28;20034;-70
2023/03/12 10:01:10;;;;;;;19.58;8.55;;;7.20;99.90;;;;;;5003864;28;20054;-71
2023/03/12 10:03:55;;;;;;;23.73;9.73;;;7.20;99.90;;;;;;5000827;28;20085;-75
2023/03/12 10:06:25;;;;;;;17.55;8.55;;;7.20;99.90;;;;;;5016599;28;20112;-76
2023/03/12 10:09:32;;;;;;;22.98;10.05;;;7.30;99.90;;;;;;5001694;28;20057;-73
2023/03/12 10:12:39;;;;;;;16.60;7.70;;;7.40;99.90;;;;;;4977579;28;20053;-70
2023/03/12 10:15:21;;;;;;;14.50;7.90;;;7.50;99.90;;;;;;4995021;28;20071;-71
2023/03/12 10:17:50;;;;;;;16.90;7.68;;;7.50;99.90;;;;;;5003390;28;20038;-71
2023/03/12 10:20:40;;;;;;;18.67;7.50;;;7.60;99.90;;;;;;5001777;28;20038;-72
2023/03/12 10:23:29;;;;;;;21.40;7.22;;;7.70;99.90;;;;;;5002100;28;20448;-70
2023/03/12 10:26:04;;;;;;;18.77;6.88;;;7.70;99.90;;;;;;5003005;28;20641;-70
2023/03/12 10:28:49;;;;;;;16.52;7.28;;;7.80;99.90;;;;;;5002707;28;20076;-75
2023/03/12 10:31:28;;;;;;;23.88;7.53;;;7.90;99.90;;;;;;5004867;28;20029;-72
2023/03/12 10:33:59;;;;;;;14.93;7.55;;;7.90;99.90;;;;;;5005345;28;20571;-74
2023/03/12 10:36:44;;;;;;;15.52;7.65;;;8.00;99.90;;;;;;5005860;28;20034;-74
2023/03/12 10:39:14;;;;;;;22.23;6.97;;;8.10;99.90;;;;;;5005801;28;20052;-74
2023/03/12 10:41:45;;;;;;;23.58;6.57;;;8.30;99.90;;;;;;5019903;28;20482;-72
2023/03/12 10:44:18;;;;;;;14.45;6.57;;;8.40;99.90;;;;;;5006522;28;20064;-74
2023/03/12 10:46:50;;;;;;;19.10;6.25;;;8.40;99.90;;;;;;5007454;28;20045;-71
2023/03/12 10:49:22;;;;;;;22.38;5.13;;;8.40;99.90;;;;;;5006662;28;20037;-74
2023/03/12 10:51:54;;;;;;;19.85;5.88;;;8.40;99.90;;;;;;5004607;28;20053;-75
2023/03/12 10:54:37;;;;;;;28.67;8.07;;;8.40;99.90;;;;;;5004431;28;20065;-73
2023/03/12 10:57:03;;;;;;;22.50;6.13;;;8.40;99.90;;;;;;5004147;28;20046;-72
2023/03/12 10:59:35;;;;;;;20.23;4.95;;;8.50;99.90;;;;;;5005379;28;20398;-72
2023/03/12 11:02:02;;;;;;;20.27;5.28;;;8.50;99.90;;;;;;5001777;28;20099;-71
2023/03/12 11:04:31;;;;;;;24.90;5.78;;;8.50;99.90;;;;;;5004127;28;20505;-74
2023/03/12 11:07:18;;;;;;;25.10;5.22;;;8.50;99.90;;;;;;5006073;28;20502;-71
2023/03/12 11:09:43;;;;;;;22.05;4.60;;;8.50;99.90;;;;;;5004378;28;20041;-72
2023/03/12 11:12:23;;;;;;;21.98;4.57;;;8.50;99.90;;;;;;5003522;28;20037;-78
2023/03/12 11:14:48;;;;;;;28.75;5.90;;;8.60;99.90;;;;;;5004303;28;20032;-77
2023/03/12 11:17:25;;;;;;;21.65;3.38;;;8.60;99.90;;;;;;5003993;28;20041;-71
2023/03/12 11:19:52;;;;;;;25.70;4.07;;;8.70;99.90;;;;;;5005695;28;20505;-76
2023/03/12 11:22:32;;;;;;;27.75;6.05;;;8.80;99.90;;;;;;5002777;28;20379;-72
2023/03/12 11:25:04;;;;;;;32.08;5.00;;;8.80;99.90;;;;;;5003499;28;20616;-71
2023/03/12 11:27:48;;;;;;;25.55;3.70;;;8.80;99.90;;;;;;5003622;28;20038;-73
2023/03/12 11:30:16;;;;;;;17.35;4.07;;;8.80;99.90;;;;;;5002767;28;20045;-72
2023/03/12 11:32:45;;;;;;;25.13;4.22;;;8.80;99.90;;;;;;5003228;28;20557;-72
2023/03/12 11:35:16;;;;;;;23.85;3.60;;;8.80;99.90;;;;;;5004507;28;20487;-74
2023/03/12 11:38:17;;;;;;;28.23;4.25;;;8.90;99.90;;;;;;5001479;28;20423;-74
2023/03/12 11:40:52;;;;;;;32.00;5.32;;;8.90;99.90;;;;;;4999782;28;20044;-73
2023/03/12 11:43:32;;;;;;;31.52;3.92;;;8.90;99.90;;;;;;5003835;28;20044;-71
2023/03/12 11:46:10;;;;;;;21.88;4.63;;;8.90;99.90;;;;;;5003009;28;20550;-73
2023/03/12 11:49:07;;;;;;;21.17;3.53;;;8.90;99.90;;;;;;5001358;28;20517;-76
2023/03/12 11:51:45;;;;;;;27.58;4.03;;;9.00;99.90;;;;;;5012325;28;20034;-75
2023/03/12 11:54:45;;;;;;;19.52;2.60;;;9.10;99.90;;;;;;5002598;28;20030;-76
2023/03/12 11:57:29;;;;;;;24.17;3.78;;;9.10;99.90;;;;;;4999999;28;20045;-71
2023/03/12 12:00:13;;;;;;;14.88;2.95;;;9.30;99.90;;;;;;5001409;28;20033;-73
2023/03/12 12:03:03;;;;;;;36.80;4.43;;;9.40;99.90;;;;;;5001796;28;20045;-74
2023/03/12 12:05:45;;;;;;;18.60;2.72;;;9.60;99.90;;;;;;5000785;28;20038;-74
2023/03/12 12:08:33;;;;;;;20.48;3.03;;;9.80;99.90;;;;;;5005765;28;20100;-74
2023/03/12 12:11:23;;;;;;;18.42;4.47;;;9.80;99.90;;;;;;5001709;28;20022;-72
2023/03/12 12:14:06;;;;;;;19.83;3.17;;;9.80;99.90;;;;;;5018319;28;20045;-71
2023/03/12 12:16:58;;;;;;;24.58;4.18;;;9.90;99.90;;;;;;5002734;28;20030;-71
2023/03/12 12:19:46;;;;;;;24.50;3.58;;;9.90;99.90;;;;;;5000561;28;20112;-73
2023/03/12 12:22:24;;;;;;;24.17;3.28;;;10.00;99.90;;;;;;5002867;28;20510;-77
2023/03/12 12:25:21;;;;;;;20.17;3.95;;;10.20;99.90;;;;;;5002924;28;20042;-73
2023/03/12 12:28:01;;;;;;;28.55;3.28;;;10.30;99.90;;;;;;5005557;28;20042;-76
2023/03/12 12:30:34;;;;;;;24.20;5.28;;;10.30;99.90;;;;;;5003832;28;20057;-70
2023/03/12 12:33:28;;;;;;;22.55;3.20;;;10.30;99.90;;;;;;5001937;28;20026;-73
2023/03/12 12:35:54;;;;;;;17.00;3.10;;;10.40;99.90;;;;;;5004355;28;20041;-71
2023/03/12 12:38:30;;;;;;;21.00;3.13;;;10.40;99.90;;;;;;5003714;28;20053;-73
2023/03/12 12:41:09;;;;;;;27.67;4.32;;;10.50;99.90;;;;;;5002251;28;20026;-71
2023/03/12 12:43:40;;;;;;;20.40;2.97;;;10.40;99.90;;;;;;5009460;28;20037;-73
2023/03/12 12:46:22;;;;;;;29.42;4.82;;;10.50;99.90;;;;;;5000832;28;20029;-71
2023/03/12 12:48:53;;;;;;;16.55;2.85;;;10.60;99.90;;;;;;5003972;28;20121;-71
2023/03/12 12:51:23;;;;;;;23.73;3.22;;;10.60;99.90;;;;;;5003061;28;20046;-71
2023/03/12 12:54:09;;;;;;;27.13;3.95;;;10.70;99.90;;;;;;5003603;28;20034;-70
2023/03/12 12:56:58;;;;;;;21.52;4.43;;;10.70;99.90;;;;;;5004166;28;20500;-70
2023/03/12 12:59:37;;;;;;;24.38;4.22;;;10.80;99.90;;;;;;5004264;28;20497;-73
2023/03/12 13:02:12;;;;;;;21.50;4.40;;;10.80;99.90;;;;;;5003232;28;20556;-74
2023/03/12 13:04:38;;;;;;;28.48;3.90;;;10.90;99.90;;;;;;5004432;28;20204;-71
2023/03/12 13:07:19;;;;;;;24.73;3.92;;;10.90;99.90;;;;;;5004603;28;20026;-71